createdAt,value
2022-12-01T00:02:01.704Z,25.42
2022-12-01T00:07:07.667Z,24.99
2022-12-01T00:12:13.043Z,23.24
2022-12-01T00:17:20.133Z,24.25
2022-12-01T00:22:23.967Z,24.49
2022-12-01T00:27:28.171Z,24.94
2022-12-01T00:32:32.842Z,27.23
2022-12-01T00:37:38.816Z,25.68
2022-12-01T00:42:42.132Z,26.71
2022-12-01T00:47:46.853Z,26.79
2022-12-01T00:52:52.399Z,30.00
2022-12-01T00:57:55.762Z,36.83
2022-12-01T01:03:00.436Z,36.07
2022-12-01T01:08:07.445Z,31.60
2022-12-01T01:13:10.946Z,27.60
2022-12-01T01:18:15.609Z,28.80
2022-12-01T01:23:18.884Z,29.23
2022-12-01T01:28:25.268Z,27.74
2022-12-01T01:33:31.061Z,28.39
2022-12-01T01:38:35.050Z,28.52
2022-12-01T01:43:43.178Z,28.88
2022-12-01T01:48:52.332Z,28.46
2022-12-01T01:53:58.892Z,28.92
2022-12-01T01:59:02.331Z,28.78
2022-12-01T02:04:08.451Z,29.68
2022-12-01T02:09:16.159Z,29.81
2022-12-01T02:14:40.355Z,36.78
2022-12-01T02:20:05.423Z,41.20
2022-12-01T02:25:20.197Z,40.88
2022-12-01T02:30:33.449Z,37.66
2022-12-01T02:35:45.087Z,37.32
2022-12-01T02:40:53.638Z,32.99
2022-12-01T02:46:07.419Z,31.14
2022-12-01T02:51:15.613Z,29.82
2022-12-01T02:56:22.711Z,29.97
2022-12-01T03:01:39.094Z,29.26
2022-12-01T03:06:49.747Z,28.47
2022-12-01T03:11:59.871Z,27.63
2022-12-01T03:17:06.884Z,28.26
2022-12-01T03:22:13.733Z,28.66
2022-12-01T03:27:23.777Z,29.71
2022-12-01T03:32:32.953Z,27.62
2022-12-01T03:37:40.115Z,27.93
2022-12-01T03:42:47.870Z,28.37
2022-12-01T03:47:52.704Z,27.79
2022-12-01T03:53:07.684Z,28.05
2022-12-01T03:58:16.518Z,28.43
2022-12-01T04:03:27.072Z,28.51
2022-12-01T04:08:33.936Z,29.29
2022-12-01T04:13:39.563Z,29.23
2022-12-01T04:18:48.559Z,28.59
2022-12-01T04:24:04.040Z,30.95
2022-12-01T04:29:09.938Z,29.43
2022-12-01T04:34:14.672Z,29.47
2022-12-01T04:39:18.041Z,29.67
2022-12-01T04:44:21.285Z,29.38
2022-12-01T04:49:26.450Z,28.37
2022-12-01T04:54:29.895Z,28.21
2022-12-01T04:59:33.283Z,29.40
2022-12-01T05:04:38.850Z,29.53
2022-12-01T05:09:42.231Z,30.40
2022-12-01T05:14:45.603Z,31.94
2022-12-01T05:20:12.837Z,41.35
2022-12-01T05:25:16.212Z,37.75
2022-12-01T05:30:25.644Z,35.42
2022-12-01T05:35:35.648Z,32.88
2022-12-01T05:40:38.999Z,35.07
2022-12-01T05:45:42.444Z,38.36
2022-12-01T05:50:49.433Z,36.34
2022-12-01T05:55:53.310Z,28.56
2022-12-01T06:00:57.251Z,28.22
2022-12-01T06:06:04.198Z,28.33
2022-12-01T06:11:09.793Z,28.78
2022-12-01T06:16:13.127Z,29.84
2022-12-01T06:21:19.921Z,28.28
2022-12-01T06:26:26.386Z,28.04
2022-12-01T06:31:29.818Z,27.64
2022-12-01T06:36:34.815Z,27.83
2022-12-01T06:41:38.201Z,28.46
2022-12-01T06:46:43.925Z,28.96
2022-12-01T06:51:48.700Z,32.86
2022-12-01T06:56:52.080Z,38.26
2022-12-01T07:01:57.742Z,35.40
2022-12-01T07:07:02.441Z,37.13
2022-12-01T07:12:06.082Z,36.18
2022-12-01T07:17:09.435Z,35.79
2022-12-01T07:22:14.079Z,35.79
2022-12-01T07:27:17.622Z,38.30
2022-12-01T07:32:23.245Z,39.16
2022-12-01T07:37:28.011Z,37.30
2022-12-01T07:42:33.621Z,32.51
2022-12-01T07:47:36.897Z,33.72
2022-12-01T07:52:43.639Z,35.00
2022-12-01T07:57:50.071Z,39.16
2022-12-01T08:02:53.506Z,37.03
2022-12-01T08:07:58.657Z,37.78
2022-12-01T08:13:04.965Z,37.27
2022-12-01T08:18:08.329Z,33.93
2022-12-01T08:23:13.217Z,32.97
2022-12-01T08:28:19.109Z,34.94
2022-12-01T08:33:22.456Z,32.26
2022-12-01T08:38:27.145Z,28.36
2022-12-01T08:48:59.236Z,28.20
2022-12-01T08:54:06.080Z,26.41
2022-12-01T08:59:11.981Z,26.72
2022-12-01T09:04:15.318Z,25.55
2022-12-01T09:09:21.588Z,26.01
2022-12-01T09:14:27.142Z,27.09
2022-12-01T09:19:30.754Z,31.77
2022-12-01T09:24:35.602Z,28.47
2022-12-01T09:29:38.945Z,29.01
2022-12-01T09:34:42.419Z,31.05
2022-12-01T09:39:47.160Z,36.36
2022-12-01T09:44:52.863Z,37.35
2022-12-01T09:50:00.270Z,42.96
2022-12-01T09:55:08.587Z,40.98
2022-12-01T10:00:16.065Z,42.78
2022-12-01T10:05:21.336Z,39.52
2022-12-01T10:10:29.282Z,38.24
2022-12-01T10:15:44.241Z,44.52
2022-12-01T10:20:53.529Z,40.88
2022-12-01T10:26:00.234Z,42.53
2022-12-01T10:31:13.468Z,43.66
2022-12-01T10:36:19.004Z,43.80
2022-12-01T10:41:26.327Z,45.70
2022-12-01T10:46:34.583Z,44.20
2022-12-01T10:51:48.132Z,50.05
2022-12-01T10:56:57.005Z,51.63
2022-12-01T11:02:03.092Z,68.63
2022-12-01T11:07:07.318Z,58.84
2022-12-01T11:12:16.056Z,59.59
2022-12-01T11:17:27.810Z,59.98
2022-12-01T11:22:32.212Z,56.48
2022-12-01T11:27:43.433Z,58.39
2022-12-01T11:32:53.514Z,60.72
2022-12-01T11:38:29.219Z,54.67
2022-12-01T11:43:27.189Z,52.20
2022-12-01T11:48:36.655Z,57.85
2022-12-01T11:53:43.343Z,53.20
2022-12-01T11:58:49.309Z,52.31
2022-12-01T12:04:00.232Z,52.67
2022-12-01T12:09:14.566Z,58.17
2022-12-01T12:14:30.947Z,66.99
2022-12-01T12:20:06.750Z,66.60
2022-12-01T12:25:23.932Z,52.09
2022-12-01T12:30:32.742Z,49.11
2022-12-01T12:35:42.377Z,50.62
2022-12-01T12:40:53.949Z,53.58
2022-12-01T12:46:05.882Z,53.14
2022-12-01T12:51:14.290Z,50.67
2022-12-01T12:56:23.071Z,49.41
2022-12-01T13:01:34.751Z,44.50
2022-12-01T13:06:44.708Z,37.32
2022-12-01T13:11:52.619Z,40.02
2022-12-01T13:17:00.557Z,35.85
2022-12-01T13:22:08.512Z,29.43
2022-12-01T13:27:17.659Z,22.29
2022-12-01T13:32:28.842Z,24.15
2022-12-01T13:37:39.605Z,22.63
2022-12-01T13:42:43.251Z,20.95
2022-12-01T13:47:53.030Z,18.92
2022-12-01T13:53:10.975Z,18.80
2022-12-01T13:58:41.991Z,24.42
2022-12-01T14:03:53.238Z,20.53
2022-12-01T14:09:00.162Z,19.65
2022-12-01T14:14:11.661Z,19.63
2022-12-01T14:19:28.623Z,20.92
2022-12-01T14:24:35.358Z,22.60
2022-12-01T14:29:39.908Z,20.50
2022-12-01T14:34:45.660Z,22.88
2022-12-01T14:39:59.212Z,29.67
2022-12-01T14:45:04.654Z,21.14
2022-12-01T14:50:16.109Z,21.55
2022-12-01T14:55:25.499Z,23.38
2022-12-01T15:00:34.971Z,27.99
2022-12-01T15:05:44.180Z,28.75
2022-12-01T15:10:52.579Z,30.35
2022-12-01T15:15:58.350Z,29.32
2022-12-01T15:21:10.506Z,35.58
2022-12-01T15:26:20.547Z,32.48
2022-12-01T15:31:26.438Z,33.78
2022-12-01T15:36:31.188Z,32.50
2022-12-01T15:41:38.126Z,38.74
2022-12-01T15:46:42.197Z,33.43
2022-12-01T15:51:50.576Z,35.80
2022-12-01T15:56:58.680Z,34.80
2022-12-01T16:02:07.282Z,46.40
2022-12-01T16:07:12.847Z,40.74
2022-12-01T16:12:24.468Z,41.34
2022-12-01T16:17:41.505Z,58.26
2022-12-01T16:22:50.893Z,43.87
2022-12-01T16:27:58.456Z,41.49
2022-12-01T16:33:03.670Z,41.81
2022-12-01T16:38:13.257Z,44.60
2022-12-01T16:43:17.798Z,46.33
2022-12-01T16:48:21.613Z,48.45
2022-12-01T16:53:28.383Z,42.64
2022-12-01T16:58:31.744Z,44.75
2022-12-01T17:03:35.957Z,44.49
2022-12-01T17:08:40.579Z,44.68
2022-12-01T17:13:46.252Z,42.44
2022-12-01T17:18:49.558Z,64.98
2022-12-01T17:23:54.296Z,41.00
2022-12-01T17:28:57.592Z,42.86
2022-12-01T17:34:05.585Z,41.04
2022-12-01T17:39:10.648Z,41.75
2022-12-01T17:44:16.457Z,45.67
2022-12-01T17:49:21.978Z,53.35
2022-12-01T17:54:26.615Z,48.86
2022-12-01T17:59:29.918Z,47.77
2022-12-01T18:04:36.090Z,47.37
2022-12-01T18:09:41.064Z,51.36
2022-12-01T18:14:44.591Z,53.26
2022-12-01T18:19:48.996Z,51.40
2022-12-01T18:24:53.728Z,50.65
2022-12-01T18:29:57.843Z,53.39
2022-12-01T18:35:03.365Z,48.85
2022-12-01T18:40:09.205Z,47.86
2022-12-01T18:45:17.956Z,43.39
2022-12-01T18:50:26.726Z,44.58
2022-12-01T18:55:31.538Z,49.23
2022-12-01T19:00:35.320Z,53.42
2022-12-01T19:05:38.804Z,56.18
2022-12-01T19:10:45.813Z,52.68
2022-12-01T19:15:49.436Z,50.54
2022-12-01T19:20:52.879Z,52.04
2022-12-01T19:25:57.617Z,50.56
2022-12-01T19:31:01.299Z,55.24
2022-12-01T19:36:05.526Z,54.23
2022-12-01T19:41:13.493Z,57.93
2022-12-01T19:46:21.450Z,52.85
2022-12-01T19:51:26.423Z,48.27
2022-12-01T19:56:31.740Z,49.19
2022-12-01T20:01:35.336Z,49.40
2022-12-01T20:06:39.242Z,58.83
2022-12-01T20:11:45.025Z,55.88
2022-12-01T20:16:50.972Z,53.06
2022-12-01T20:21:56.528Z,53.38
2022-12-01T20:27:04.476Z,48.25
2022-12-01T20:32:11.291Z,46.62
2022-12-01T20:37:15.255Z,47.75
2022-12-01T20:42:22.325Z,47.71
2022-12-01T20:47:25.662Z,48.48
2022-12-01T20:52:29.029Z,49.77
2022-12-01T20:57:33.795Z,49.32
2022-12-01T21:02:37.849Z,50.38
2022-12-01T21:07:41.346Z,47.99
2022-12-01T21:13:07.216Z,48.55
2022-12-01T21:18:21.309Z,46.80
2022-12-01T21:23:28.152Z,48.44
2022-12-01T21:28:32.791Z,46.81
2022-12-01T21:33:37.415Z,47.40
2022-12-01T21:38:42.915Z,47.89
2022-12-01T21:43:47.526Z,48.40
2022-12-01T21:48:53.042Z,50.14
2022-12-01T21:53:59.250Z,48.45
2022-12-01T21:59:14.802Z,46.46
2022-12-01T22:04:20.314Z,40.52
2022-12-01T22:09:25.646Z,41.04
2022-12-01T22:14:33.465Z,39.86
2022-12-01T22:19:39.040Z,40.69
2022-12-01T22:24:43.770Z,40.57
2022-12-01T22:29:50.348Z,42.48
2022-12-01T22:34:56.311Z,42.14
2022-12-01T22:39:59.619Z,41.09
2022-12-01T22:45:20.732Z,42.00
2022-12-01T22:50:27.802Z,43.87
2022-12-01T22:55:31.104Z,42.09
2022-12-01T23:00:38.127Z,42.01
2022-12-01T23:05:42.155Z,40.88
2022-12-01T23:10:45.863Z,38.97
2022-12-01T23:15:55.301Z,38.96
2022-12-01T23:21:00.002Z,38.52
2022-12-01T23:26:04.546Z,38.73
2022-12-01T23:31:10.274Z,38.74
2022-12-01T23:36:17.644Z,39.02
2022-12-01T23:41:25.727Z,38.33
2022-12-01T23:46:30.668Z,37.22
2022-12-01T23:51:36.953Z,35.46
2022-12-01T23:56:42.580Z,34.30
